sensor_id;sensor_type;location;lat;lon;timestamp;temperature;humidity
59311;DHT22;45078;51.654;21.250;2024-02-26T00:01:01;5.30;99.90
59311;DHT22;45078;51.654;21.250;2024-02-26T00:03:27;5.20;99.90
59311;DHT22;45078;51.654;21.250;2024-02-26T00:05:53;5.10;99.90
59311;DHT22;45078;51.654;21.250;2024-02-26T00:08:19;5.00;99.90
59311;DHT22;45078;51.654;21.250;2024-02-26T00:10:44;5.00;99.90
59311;DHT22;45078;51.654;21.250;2024-02-26T00:13:10;4.90;99.90
59311;DHT22;45078;51.654;21.250;2024-02-26T00:15:35;4.90;99.90
59311;DHT22;45078;51.654;21.250;2024-02-26T00:18:01;4.80;99.90
59311;DHT22;45078;51.654;21.250;2024-02-26T00:20:27;4.90;99.90
59311;DHT22;45078;51.654;21.250;2024-02-26T00:22:53;4.80;99.90
59311;DHT22;45078;51.654;21.250;2024-02-26T00:25:18;4.70;99.90
59311;DHT22;45078;51.654;21.250;2024-02-26T00:27:44;4.70;99.90
59311;DHT22;45078;51.654;21.250;2024-02-26T00:30:10;4.70;99.90
59311;DHT22;45078;51.654;21.250;2024-02-26T00:32:36;4.60;99.90
59311;DHT22;45078;51.654;21.250;2024-02-26T00:35:01;4.60;99.90
59311;DHT22;45078;51.654;21.250;2024-02-26T00:37:27;4.50;99.90
59311;DHT22;45078;51.654;21.250;2024-02-26T00:39:53;4.50;99.90
59311;DHT22;45078;51.654;21.250;2024-02-26T00:42:19;4.40;99.90
59311;DHT22;45078;51.654;21.250;2024-02-26T00:44:45;4.40;99.90
59311;DHT22;45078;51.654;21.250;2024-02-26T00:47:10;4.30;99.90
59311;DHT22;45078;51.654;21.250;2024-02-26T00:49:37;4.30;99.90
59311;DHT22;45078;51.654;21.250;2024-02-26T00:52:03;4.20;99.90
59311;DHT22;45078;51.654;21.250;2024-02-26T00:54:28;4.20;99.90
59311;DHT22;45078;51.654;21.250;2024-02-26T00:56:54;4.10;99.90
59311;DHT22;45078;51.654;21.250;2024-02-26T00:59:20;4.10;99.90
59311;DHT22;45078;51.654;21.250;2024-02-26T01:01:46;4.00;99.90
59311;DHT22;45078;51.654;21.250;2024-02-26T01:04:11;3.90;99.90
59311;DHT22;45078;51.654;21.250;2024-02-26T01:06:37;3.90;99.90
59311;DHT22;45078;51.654;21.250;2024-02-26T01:09:03;3.90;99.90
59311;DHT22;45078;51.654;21.250;2024-02-26T01:11:29;3.90;99.90
59311;DHT22;45078;51.654;21.250;2024-02-26T01:13:54;3.90;99.90
59311;DHT22;45078;51.654;21.250;2024-02-26T01:16:23;3.90;99.90
59311;DHT22;45078;51.654;21.250;2024-02-26T01:18:49;3.80;99.90
59311;DHT22;45078;51.654;21.250;2024-02-26T01:21:14;3.80;99.90
59311;DHT22;45078;51.654;21.250;2024-02-26T01:23:40;3.80;99.90
59311;DHT22;45078;51.654;21.250;2024-02-26T01:26:06;3.70;99.90
59311;DHT22;45078;51.654;21.250;2024-02-26T01:28:31;3.70;99.90
59311;DHT22;45078;51.654;21.250;2024-02-26T01:30:57;3.80;99.90
59311;DHT22;45078;51.654;21.250;2024-02-26T01:33:25;3.90;99.90
59311;DHT22;45078;51.654;21.250;2024-02-26T01:35:50;3.80;99.90
59311;DHT22;45078;51.654;21.250;2024-02-26T01:38:16;3.80;99.90
59311;DHT22;45078;51.654;21.250;2024-02-26T01:40:42;3.70;99.90
59311;DHT22;45078;51.654;21.250;2024-02-26T01:43:07;3.70;99.90
59311;DHT22;45078;51.654;21.250;2024-02-26T01:45:33;3.60;99.90
59311;DHT22;45078;51.654;21.250;2024-02-26T01:47:59;3.60;99.90
59311;DHT22;45078;51.654;21.250;2024-02-26T01:50:25;3.50;99.90
59311;DHT22;45078;51.654;21.250;2024-02-26T01:52:52;3.50;99.90
59311;DHT22;45078;51.654;21.250;2024-02-26T01:55:19;3.50;99.90
59311;DHT22;45078;51.654;21.250;2024-02-26T01:57:46;3.50;99.90
59311;DHT22;45078;51.654;21.250;2024-02-26T02:00:14;3.50;99.90
59311;DHT22;45078;51.654;21.250;2024-02-26T02:02:40;3.50;99.90
59311;DHT22;45078;51.654;21.250;2024-02-26T02:05:08;3.60;99.90
59311;DHT22;45078;51.654;21.250;2024-02-26T02:07:36;3.70;99.90
59311;DHT22;45078;51.654;21.250;2024-02-26T02:10:01;3.70;99.90
59311;DHT22;45078;51.654;21.250;2024-02-26T02:12:28;3.80;99.90
59311;DHT22;45078;51.654;21.250;2024-02-26T02:14:53;3.80;99.90
59311;DHT22;45078;51.654;21.250;2024-02-26T02:17:20;3.90;99.90
59311;DHT22;45078;51.654;21.250;2024-02-26T02:19:46;3.90;99.90
59311;DHT22;45078;51.654;21.250;2024-02-26T02:22:11;4.00;99.90
59311;DHT22;45078;51.654;21.250;2024-02-26T02:24:37;4.00;99.90
59311;DHT22;45078;51.654;21.250;2024-02-26T02:27:03;4.00;99.90
59311;DHT22;45078;51.654;21.250;2024-02-26T02:29:29;4.00;99.90
59311;DHT22;45078;51.654;21.250;2024-02-26T02:31:55;4.00;99.90
59311;DHT22;45078;51.654;21.250;2024-02-26T02:34:22;4.00;99.90
59311;DHT22;45078;51.654;21.250;2024-02-26T02:36:49;4.00;99.90
59311;DHT22;45078;51.654;21.250;2024-02-26T02:39:15;3.90;99.90
59311;DHT22;45078;51.654;21.250;2024-02-26T02:41:41;3.90;99.90
59311;DHT22;45078;51.654;21.250;2024-02-26T02:44:07;3.90;99.90
59311;DHT22;45078;51.654;21.250;2024-02-26T02:46:32;3.90;99.90
59311;DHT22;45078;51.654;21.250;2024-02-26T02:48:59;3.80;99.90
59311;DHT22;45078;51.654;21.250;2024-02-26T02:51:24;3.80;99.90
59311;DHT22;45078;51.654;21.250;2024-02-26T02:53:50;3.80;99.90
59311;DHT22;45078;51.654;21.250;2024-02-26T02:56:15;3.80;99.90
59311;DHT22;45078;51.654;21.250;2024-02-26T02:58:41;3.80;99.90
59311;DHT22;45078;51.654;21.250;2024-02-26T03:01:07;3.70;99.90
59311;DHT22;45078;51.654;21.250;2024-02-26T03:03:32;3.70;99.90
59311;DHT22;45078;51.654;21.250;2024-02-26T03:05:58;3.60;99.90
59311;DHT22;45078;51.654;21.250;2024-02-26T03:08:24;3.60;99.90
59311;DHT22;45078;51.654;21.250;2024-02-26T03:10:51;3.50;99.90
59311;DHT22;45078;51.654;21.250;2024-02-26T03:13:17;3.50;99.90
59311;DHT22;45078;51.654;21.250;2024-02-26T03:15:43;3.40;99.90
59311;DHT22;45078;51.654;21.250;2024-02-26T03:18:08;3.40;99.90
59311;DHT22;45078;51.654;21.250;2024-02-26T03:20:34;3.40;99.90
59311;DHT22;45078;51.654;21.250;2024-02-26T03:23:00;3.50;99.90
59311;DHT22;45078;51.654;21.250;2024-02-26T03:25:25;3.40;99.90
59311;DHT22;45078;51.654;21.250;2024-02-26T03:27:51;3.40;99.90
59311;DHT22;45078;51.654;21.250;2024-02-26T03:30:17;3.40;99.90
59311;DHT22;45078;51.654;21.250;2024-02-26T03:32:42;3.40;99.90
59311;DHT22;45078;51.654;21.250;2024-02-26T03:35:08;3.30;99.90
59311;DHT22;45078;51.654;21.250;2024-02-26T03:37:34;3.20;99.90
59311;DHT22;45078;51.654;21.250;2024-02-26T03:40:00;3.20;99.90
59311;DHT22;45078;51.654;21.250;2024-02-26T03:42:26;3.10;99.90
59311;DHT22;45078;51.654;21.250;2024-02-26T03:44:52;3.10;99.90
59311;DHT22;45078;51.654;21.250;2024-02-26T03:47:18;3.20;99.90
59311;DHT22;45078;51.654;21.250;2024-02-26T03:49:43;3.20;99.90
59311;DHT22;45078;51.654;21.250;2024-02-26T03:52:10;3.20;99.90
59311;DHT22;45078;51.654;21.250;2024-02-26T03:54:35;3.20;99.90
59311;DHT22;45078;51.654;21.250;2024-02-26T03:57:01;3.20;99.90
59311;DHT22;45078;51.654;21.250;2024-02-26T03:59:27;3.20;99.90
59311;DHT22;45078;51.654;21.250;2024-02-26T04:01:52;3.30;99.90
59311;DHT22;45078;51.654;21.250;2024-02-26T04:04:18;3.30;99.90
59311;DHT22;45078;51.654;21.250;2024-02-26T04:06:46;3.30;99.90
59311;DHT22;45078;51.654;21.250;2024-02-26T04:09:15;3.30;99.90
59311;DHT22;45078;51.654;21.250;2024-02-26T04:11:41;3.40;99.90
59311;DHT22;45078;51.654;21.250;2024-02-26T04:14:08;3.40;99.90
59311;DHT22;45078;51.654;21.250;2024-02-26T04:16:35;3.40;99.90
59311;DHT22;45078;51.654;21.250;2024-02-26T04:19:03;3.40;99.90
59311;DHT22;45078;51.654;21.250;2024-02-26T04:21:28;3.40;99.90
59311;DHT22;45078;51.654;21.250;2024-02-26T04:23:54;3.40;99.90
59311;DHT22;45078;51.654;21.250;2024-02-26T04:26:26;3.40;99.90
59311;DHT22;45078;51.654;21.250;2024-02-26T04:28:52;3.50;99.90
59311;DHT22;45078;51.654;21.250;2024-02-26T04:31:18;3.50;99.90
59311;DHT22;45078;51.654;21.250;2024-02-26T04:33:44;3.50;99.90
59311;DHT22;45078;51.654;21.250;2024-02-26T04:36:15;3.60;99.90
59311;DHT22;45078;51.654;21.250;2024-02-26T04:38:45;3.60;99.90
59311;DHT22;45078;51.654;21.250;2024-02-26T04:41:11;3.60;99.90
59311;DHT22;45078;51.654;21.250;2024-02-26T04:43:37;3.60;99.90
59311;DHT22;45078;51.654;21.250;2024-02-26T04:46:07;3.70;99.90
59311;DHT22;45078;51.654;21.250;2024-02-26T04:48:34;3.70;99.90
59311;DHT22;45078;51.654;21.250;2024-02-26T04:51:00;3.70;99.90
59311;DHT22;45078;51.654;21.250;2024-02-26T04:53:26;3.70;99.90
59311;DHT22;45078;51.654;21.250;2024-02-26T04:55:52;3.80;99.90
59311;DHT22;45078;51.654;21.250;2024-02-26T04:58:18;3.80;99.90
59311;DHT22;45078;51.654;21.250;2024-02-26T05:00:44;3.70;99.90
59311;DHT22;45078;51.654;21.250;2024-02-26T05:03:09;3.70;99.90
59311;DHT22;45078;51.654;21.250;2024-02-26T05:05:39;3.70;99.90
59311;DHT22;45078;51.654;21.250;2024-02-26T05:08:06;3.80;99.90
59311;DHT22;45078;51.654;21.250;2024-02-26T05:10:33;3.80;99.90
59311;DHT22;45078;51.654;21.250;2024-02-26T05:12:58;3.90;99.90
59311;DHT22;45078;51.654;21.250;2024-02-26T05:15:24;3.90;99.90
59311;DHT22;45078;51.654;21.250;2024-02-26T05:17:50;3.90;99.90
59311;DHT22;45078;51.654;21.250;2024-02-26T05:20:15;3.90;99.90
59311;DHT22;45078;51.654;21.250;2024-02-26T05:22:41;4.00;99.90
59311;DHT22;45078;51.654;21.250;2024-02-26T05:25:07;4.00;99.90
59311;DHT22;45078;51.654;21.250;2024-02-26T05:27:33;3.90;99.90
59311;DHT22;45078;51.654;21.250;2024-02-26T05:29:59;3.80;99.90
59311;DHT22;45078;51.654;21.250;2024-02-26T05:32:24;3.90;99.90
59311;DHT22;45078;51.654;21.250;2024-02-26T05:34:50;3.80;99.90
59311;DHT22;45078;51.654;21.250;2024-02-26T05:37:16;3.70;99.90
59311;DHT22;45078;51.654;21.250;2024-02-26T05:39:41;3.70;99.90
59311;DHT22;45078;51.654;21.250;2024-02-26T05:42:07;3.70;99.90
59311;DHT22;45078;51.654;21.250;2024-02-26T05:44:34;3.70;99.90
59311;DHT22;45078;51.654;21.250;2024-02-26T05:47:00;3.80;99.90
59311;DHT22;45078;51.654;21.250;2024-02-26T05:49:25;3.80;99.90
59311;DHT22;45078;51.654;21.250;2024-02-26T05:51:51;3.70;99.90
59311;DHT22;45078;51.654;21.250;2024-02-26T05:54:17;3.70;99.90
59311;DHT22;45078;51.654;21.250;2024-02-26T05:56:42;3.60;99.90
59311;DHT22;45078;51.654;21.250;2024-02-26T05:59:08;3.50;99.90
59311;DHT22;45078;51.654;21.250;2024-02-26T06:01:34;3.50;99.90
59311;DHT22;45078;51.654;21.250;2024-02-26T06:03:59;3.40;99.90
59311;DHT22;45078;51.654;21.250;2024-02-26T06:06:25;3.40;99.90
59311;DHT22;45078;51.654;21.250;2024-02-26T06:08:51;3.50;99.90
59311;DHT22;45078;51.654;21.250;2024-02-26T06:11:17;3.50;99.90
59311;DHT22;45078;51.654;21.250;2024-02-26T06:13:43;3.80;99.90
59311;DHT22;45078;51.654;21.250;2024-02-26T06:16:08;4.20;99.90
59311;DHT22;45078;51.654;21.250;2024-02-26T06:18:34;4.40;99.90
59311;DHT22;45078;51.654;21.250;2024-02-26T06:21:00;4.60;99.90
59311;DHT22;45078;51.654;21.250;2024-02-26T06:23:26;4.80;99.90
59311;DHT22;45078;51.654;21.250;2024-02-26T06:25:52;5.10;99.90
59311;DHT22;45078;51.654;21.250;2024-02-26T06:28:17;5.20;99.90
59311;DHT22;45078;51.654;21.250;2024-02-26T06:30:43;5.50;99.90
59311;DHT22;45078;51.654;21.250;2024-02-26T06:33:09;5.70;99.90
59311;DHT22;45078;51.654;21.250;2024-02-26T06:35:36;6.00;99.90
59311;DHT22;45078;51.654;21.250;2024-02-26T06:38:01;6.30;99.90
59311;DHT22;45078;51.654;21.250;2024-02-26T06:40:27;6.70;99.90
59311;DHT22;45078;51.654;21.250;2024-02-26T06:42:53;7.00;99.90
59311;DHT22;45078;51.654;21.250;2024-02-26T06:45:19;7.30;99.90
59311;DHT22;45078;51.654;21.250;2024-02-26T06:47:47;7.40;99.90
59311;DHT22;45078;51.654;21.250;2024-02-26T06:50:13;7.50;99.90
59311;DHT22;45078;51.654;21.250;2024-02-26T06:52:39;7.70;99.90
59311;DHT22;45078;51.654;21.250;2024-02-26T06:55:05;7.90;99.90
59311;DHT22;45078;51.654;21.250;2024-02-26T06:57:33;8.10;99.90
59311;DHT22;45078;51.654;21.250;2024-02-26T06:59:59;8.40;99.90
59311;DHT22;45078;51.654;21.250;2024-02-26T07:02:25;8.50;99.90
59311;DHT22;45078;51.654;21.250;2024-02-26T07:04:50;8.70;99.90
59311;DHT22;45078;51.654;21.250;2024-02-26T07:07:16;8.90;99.90
59311;DHT22;45078;51.654;21.250;2024-02-26T07:09:43;9.10;99.90
59311;DHT22;45078;51.654;21.250;2024-02-26T07:12:09;9.10;99.90
59311;DHT22;45078;51.654;21.250;2024-02-26T07:14:34;9.10;99.90
59311;DHT22;45078;51.654;21.250;2024-02-26T07:17:03;9.00;99.90
59311;DHT22;45078;51.654;21.250;2024-02-26T07:19:28;8.80;99.90
59311;DHT22;45078;51.654;21.250;2024-02-26T07:21:54;8.70;99.90
59311;DHT22;45078;51.654;21.250;2024-02-26T07:24:21;8.60;99.90
59311;DHT22;45078;51.654;21.250;2024-02-26T07:26:46;8.60;99.90
59311;DHT22;45078;51.654;21.250;2024-02-26T07:29:12;8.60;99.90
59311;DHT22;45078;51.654;21.250;2024-02-26T07:31:38;8.60;99.90
59311;DHT22;45078;51.654;21.250;2024-02-26T07:34:03;8.70;99.90
59311;DHT22;45078;51.654;21.250;2024-02-26T07:36:29;8.60;99.90
59311;DHT22;45078;51.654;21.250;2024-02-26T07:38:55;8.50;99.90
59311;DHT22;45078;51.654;21.250;2024-02-26T07:41:20;8.50;99.90
59311;DHT22;45078;51.654;21.250;2024-02-26T07:43:46;8.60;99.90
59311;DHT22;45078;51.654;21.250;2024-02-26T07:46:12;8.60;99.90
59311;DHT22;45078;51.654;21.250;2024-02-26T07:48:38;8.60;99.90
59311;DHT22;45078;51.654;21.250;2024-02-26T07:51:04;8.50;99.90
59311;DHT22;45078;51.654;21.250;2024-02-26T07:53:30;8.60;99.90
59311;DHT22;45078;51.654;21.250;2024-02-26T07:55:56;8.60;99.90
59311;DHT22;45078;51.654;21.250;2024-02-26T07:58:23;8.70;99.90
59311;DHT22;45078;51.654;21.250;2024-02-26T08:00:49;8.70;99.90
59311;DHT22;45078;51.654;21.250;2024-02-26T08:03:15;8.80;99.90
59311;DHT22;45078;51.654;21.250;2024-02-26T08:05:41;8.80;99.90
59311;DHT22;45078;51.654;21.250;2024-02-26T08:08:08;8.90;99.90
59311;DHT22;45078;51.654;21.250;2024-02-26T08:10:34;8.90;99.90
59311;DHT22;45078;51.654;21.250;2024-02-26T08:13:00;8.90;99.90
59311;DHT22;45078;51.654;21.250;2024-02-26T08:15:34;9.00;99.90
59311;DHT22;45078;51.654;21.250;2024-02-26T08:18:01;9.10;99.90
59311;DHT22;45078;51.654;21.250;2024-02-26T08:20:31;9.20;99.90
59311;DHT22;45078;51.654;21.250;2024-02-26T08:22:57;9.30;99.90
59311;DHT22;45078;51.654;21.250;2024-02-26T08:25:24;9.40;99.90
59311;DHT22;45078;51.654;21.250;2024-02-26T08:27:49;9.50;99.90
59311;DHT22;45078;51.654;21.250;2024-02-26T08:30:16;9.60;99.90
59311;DHT22;45078;51.654;21.250;2024-02-26T08:32:45;9.60;99.90
59311;DHT22;45078;51.654;21.250;2024-02-26T08:35:11;9.70;99.90
59311;DHT22;45078;51.654;21.250;2024-02-26T08:37:37;9.80;99.90
59311;DHT22;45078;51.654;21.250;2024-02-26T08:40:03;9.80;99.90
59311;DHT22;45078;51.654;21.250;2024-02-26T08:42:29;9.80;99.90
59311;DHT22;45078;51.654;21.250;2024-02-26T08:44:55;9.90;99.90
59311;DHT22;45078;51.654;21.250;2024-02-26T08:47:21;9.90;99.90
59311;DHT22;45078;51.654;21.250;2024-02-26T08:49:46;10.00;99.90
59311;DHT22;45078;51.654;21.250;2024-02-26T08:52:12;10.10;99.90
59311;DHT22;45078;51.654;21.250;2024-02-26T08:54:39;10.10;99.90
59311;DHT22;45078;51.654;21.250;2024-02-26T08:57:06;10.20;99.90
59311;DHT22;45078;51.654;21.250;2024-02-26T08:59:31;10.30;99.90
59311;DHT22;45078;51.654;21.250;2024-02-26T09:01:57;10.30;99.90
59311;DHT22;45078;51.654;21.250;2024-02-26T09:04:22;10.40;99.90
59311;DHT22;45078;51.654;21.250;2024-02-26T09:06:48;10.40;99.90
59311;DHT22;45078;51.654;21.250;2024-02-26T09:09:14;10.50;99.90
59311;DHT22;45078;51.654;21.250;2024-02-26T09:11:40;10.50;99.90
59311;DHT22;45078;51.654;21.250;2024-02-26T09:14:06;10.70;99.90
59311;DHT22;45078;51.654;21.250;2024-02-26T09:16:31;10.70;99.90
59311;DHT22;45078;51.654;21.250;2024-02-26T09:18:57;10.80;99.90
59311;DHT22;45078;51.654;21.250;2024-02-26T09:21:23;10.80;99.90
59311;DHT22;45078;51.654;21.250;2024-02-26T09:23:50;10.90;99.90
59311;DHT22;45078;51.654;21.250;2024-02-26T09:26:16;10.80;99.90
59311;DHT22;45078;51.654;21.250;2024-02-26T09:28:42;10.80;99.90
59311;DHT22;45078;51.654;21.250;2024-02-26T09:31:08;11.00;99.90
59311;DHT22;45078;51.654;21.250;2024-02-26T09:33:34;11.10;99.90
59311;DHT22;45078;51.654;21.250;2024-02-26T09:36:00;11.20;99.90
59311;DHT22;45078;51.654;21.250;2024-02-26T09:38:28;11.30;99.90
59311;DHT22;45078;51.654;21.250;2024-02-26T09:40:57;11.40;99.90
59311;DHT22;45078;51.654;21.250;2024-02-26T09:43:23;11.50;99.90
59311;DHT22;45078;51.654;21.250;2024-02-26T09:45:54;11.60;99.90
59311;DHT22;45078;51.654;21.250;2024-02-26T09:48:20;11.60;99.90
59311;DHT22;45078;51.654;21.250;2024-02-26T09:50:46;11.50;99.90
59311;DHT22;45078;51.654;21.250;2024-02-26T09:53:12;11.60;99.90
59311;DHT22;45078;51.654;21.250;2024-02-26T09:55:40;11.50;99.90
59311;DHT22;45078;51.654;21.250;2024-02-26T09:58:06;11.50;99.90
59311;DHT22;45078;51.654;21.250;2024-02-26T10:00:37;11.70;99.90
59311;DHT22;45078;51.654;21.250;2024-02-26T10:03:04;12.10;99.90
59311;DHT22;45078;51.654;21.250;2024-02-26T10:05:32;12.30;99.90
59311;DHT22;45078;51.654;21.250;2024-02-26T10:07:59;12.30;99.90
59311;DHT22;45078;51.654;21.250;2024-02-26T10:10:29;12.40;99.90
59311;DHT22;45078;51.654;21.250;2024-02-26T10:12:54;12.40;99.90
59311;DHT22;45078;51.654;21.250;2024-02-26T10:15:20;12.60;99.90
59311;DHT22;45078;51.654;21.250;2024-02-26T10:17:46;12.80;99.90
59311;DHT22;45078;51.654;21.250;2024-02-26T10:20:13;13.00;99.90
59311;DHT22;45078;51.654;21.250;2024-02-26T10:22:41;13.20;99.90
59311;DHT22;45078;51.654;21.250;2024-02-26T10:25:07;13.20;99.90
59311;DHT22;45078;51.654;21.250;2024-02-26T10:27:34;13.20;99.90
59311;DHT22;45078;51.654;21.250;2024-02-26T10:30:04;13.10;99.90
59311;DHT22;45078;51.654;21.250;2024-02-26T10:32:31;13.60;99.90
59311;DHT22;45078;51.654;21.250;2024-02-26T10:34:57;13.90;99.90
59311;DHT22;45078;51.654;21.250;2024-02-26T10:37:23;14.10;99.90
59311;DHT22;45078;51.654;21.250;2024-02-26T10:39:50;14.30;99.90
59311;DHT22;45078;51.654;21.250;2024-02-26T10:42:16;14.20;99.90
59311;DHT22;45078;51.654;21.250;2024-02-26T10:44:45;14.20;99.90
59311;DHT22;45078;51.654;21.250;2024-02-26T10:47:11;14.20;99.90
59311;DHT22;45078;51.654;21.250;2024-02-26T10:49:37;14.10;99.90
59311;DHT22;45078;51.654;21.250;2024-02-26T10:52:04;14.00;99.90
59311;DHT22;45078;51.654;21.250;2024-02-26T10:54:32;14.10;99.90
59311;DHT22;45078;51.654;21.250;2024-02-26T10:56:59;14.30;99.90
59311;DHT22;45078;51.654;21.250;2024-02-26T10:59:26;14.40;99.90
59311;DHT22;45078;51.654;21.250;2024-02-26T11:01:52;14.30;99.90
59311;DHT22;45078;51.654;21.250;2024-02-26T11:04:18;14.50;99.90
59311;DHT22;45078;51.654;21.250;2024-02-26T11:06:47;14.70;99.90
59311;DHT22;45078;51.654;21.250;2024-02-26T11:09:15;14.70;99.90
59311;DHT22;45078;51.654;21.250;2024-02-26T11:11:42;14.80;99.90
59311;DHT22;45078;51.654;21.250;2024-02-26T11:14:09;14.80;99.90
59311;DHT22;45078;51.654;21.250;2024-02-26T11:16:35;15.00;99.90
59311;DHT22;45078;51.654;21.250;2024-02-26T11:19:02;14.40;99.90
59311;DHT22;45078;51.654;21.250;2024-02-26T11:21:28;14.30;99.90
59311;DHT22;45078;51.654;21.250;2024-02-26T11:24:14;14.30;99.90
59311;DHT22;45078;51.654;21.250;2024-02-26T11:26:47;14.10;99.90
59311;DHT22;45078;51.654;21.250;2024-02-26T11:29:19;14.10;99.90
59311;DHT22;45078;51.654;21.250;2024-02-26T11:31:47;14.10;99.90
59311;DHT22;45078;51.654;21.250;2024-02-26T11:34:13;14.00;99.90
59311;DHT22;45078;51.654;21.250;2024-02-26T11:36:38;14.20;99.90
59311;DHT22;45078;51.654;21.250;2024-02-26T11:39:05;13.90;99.90
59311;DHT22;45078;51.654;21.250;2024-02-26T11:41:32;13.90;99.90
59311;DHT22;45078;51.654;21.250;2024-02-26T11:44:00;14.00;99.90
59311;DHT22;45078;51.654;21.250;2024-02-26T11:46:38;13.90;99.90
59311;DHT22;45078;51.654;21.250;2024-02-26T11:49:37;13.80;99.90
59311;DHT22;45078;51.654;21.250;2024-02-26T11:52:06;13.70;99.90
59311;DHT22;45078;51.654;21.250;2024-02-26T11:54:39;13.70;99.90
59311;DHT22;45078;51.654;21.250;2024-02-26T11:57:23;13.70;99.90
59311;DHT22;45078;51.654;21.250;2024-02-26T11:59:49;13.70;99.90
59311;DHT22;45078;51.654;21.250;2024-02-26T12:05:11;13.90;99.90
59311;DHT22;45078;51.654;21.250;2024-02-26T12:07:40;14.00;99.90
59311;DHT22;45078;51.654;21.250;2024-02-26T12:10:27;14.10;99.90
59311;DHT22;45078;51.654;21.250;2024-02-26T12:13:00;13.90;99.90
59311;DHT22;45078;51.654;21.250;2024-02-26T12:18:07;13.80;99.90
59311;DHT22;45078;51.654;21.250;2024-02-26T12:20:38;13.70;99.90
59311;DHT22;45078;51.654;21.250;2024-02-26T12:23:04;13.50;99.90
59311;DHT22;45078;51.654;21.250;2024-02-26T12:25:31;13.50;99.90
59311;DHT22;45078;51.654;21.250;2024-02-26T12:27:58;13.40;99.90
59311;DHT22;45078;51.654;21.250;2024-02-26T12:30:25;13.40;99.90
59311;DHT22;45078;51.654;21.250;2024-02-26T12:32:56;13.30;99.90
59311;DHT22;45078;51.654;21.250;2024-02-26T12:35:23;13.30;99.90
59311;DHT22;45078;51.654;21.250;2024-02-26T12:37:50;13.30;99.90
59311;DHT22;45078;51.654;21.250;2024-02-26T12:40:17;13.30;99.90
59311;DHT22;45078;51.654;21.250;2024-02-26T12:42:43;13.30;99.90
59311;DHT22;45078;51.654;21.250;2024-02-26T12:45:11;13.40;99.90
59311;DHT22;45078;51.654;21.250;2024-02-26T12:47:38;13.50;99.90
59311;DHT22;45078;51.654;21.250;2024-02-26T12:50:04;13.60;99.90
59311;DHT22;45078;51.654;21.250;2024-02-26T12:52:54;13.70;99.90
59311;DHT22;45078;51.654;21.250;2024-02-26T12:55:20;13.80;99.90
59311;DHT22;45078;51.654;21.250;2024-02-26T12:57:46;13.70;99.90
59311;DHT22;45078;51.654;21.250;2024-02-26T13:00:17;13.80;99.90
59311;DHT22;45078;51.654;21.250;2024-02-26T13:02:44;13.60;99.90
59311;DHT22;45078;51.654;21.250;2024-02-26T13:05:12;13.50;99.90
59311;DHT22;45078;51.654;21.250;2024-02-26T13:07:45;13.60;99.90
59311;DHT22;45078;51.654;21.250;2024-02-26T13:10:13;13.50;99.90
59311;DHT22;45078;51.654;21.250;2024-02-26T13:12:46;13.60;99.90
59311;DHT22;45078;51.654;21.250;2024-02-26T13:15:20;13.60;99.90
59311;DHT22;45078;51.654;21.250;2024-02-26T13:17:47;13.70;99.90
59311;DHT22;45078;51.654;21.250;2024-02-26T13:20:28;13.70;99.90
59311;DHT22;45078;51.654;21.250;2024-02-26T13:23:01;13.70;99.90
59311;DHT22;45078;51.654;21.250;2024-02-26T13:25:28;13.60;99.90
59311;DHT22;45078;51.654;21.250;2024-02-26T13:28:17;13.50;99.90
59311;DHT22;45078;51.654;21.250;2024-02-26T13:30:53;13.50;99.90
59311;DHT22;45078;51.654;21.250;2024-02-26T13:33:19;13.20;99.90
59311;DHT22;45078;51.654;21.250;2024-02-26T13:35:46;13.20;99.90
59311;DHT22;45078;51.654;21.250;2024-02-26T13:38:11;13.20;99.90
59311;DHT22;45078;51.654;21.250;2024-02-26T13:40:38;13.10;99.90
59311;DHT22;45078;51.654;21.250;2024-02-26T13:43:05;13.10;99.90
59311;DHT22;45078;51.654;21.250;2024-02-26T13:45:30;13.10;99.90
59311;DHT22;45078;51.654;21.250;2024-02-26T13:48:04;13.10;99.90
59311;DHT22;45078;51.654;21.250;2024-02-26T13:50:30;13.00;99.90
59311;DHT22;45078;51.654;21.250;2024-02-26T13:52:56;13.00;99.90
59311;DHT22;45078;51.654;21.250;2024-02-26T13:55:23;12.90;99.90
59311;DHT22;45078;51.654;21.250;2024-02-26T13:57:52;13.00;99.90
59311;DHT22;45078;51.654;21.250;2024-02-26T14:00:19;13.00;99.90
59311;DHT22;45078;51.654;21.250;2024-02-26T14:02:45;13.00;99.90
59311;DHT22;45078;51.654;21.250;2024-02-26T14:05:10;13.00;99.90
59311;DHT22;45078;51.654;21.250;2024-02-26T14:07:36;12.90;99.90
59311;DHT22;45078;51.654;21.250;2024-02-26T14:10:02;12.90;99.90
59311;DHT22;45078;51.654;21.250;2024-02-26T14:12:28;12.90;99.90
59311;DHT22;45078;51.654;21.250;2024-02-26T14:14:54;13.00;99.90
59311;DHT22;45078;51.654;21.250;2024-02-26T14:17:21;13.10;99.90
59311;DHT22;45078;51.654;21.250;2024-02-26T14:19:47;13.10;99.90
59311;DHT22;45078;51.654;21.250;2024-02-26T14:22:14;13.10;99.90
59311;DHT22;45078;51.654;21.250;2024-02-26T14:24:41;13.20;99.90
59311;DHT22;45078;51.654;21.250;2024-02-26T14:27:12;13.20;99.90
59311;DHT22;45078;51.654;21.250;2024-02-26T14:29:43;13.20;99.90
59311;DHT22;45078;51.654;21.250;2024-02-26T14:32:12;13.20;99.90
59311;DHT22;45078;51.654;21.250;2024-02-26T14:34:38;13.20;99.90
59311;DHT22;45078;51.654;21.250;2024-02-26T14:37:04;13.20;99.90
59311;DHT22;45078;51.654;21.250;2024-02-26T14:39:33;13.10;99.90
59311;DHT22;45078;51.654;21.250;2024-02-26T14:41:59;13.10;99.90
59311;DHT22;45078;51.654;21.250;2024-02-26T14:44:25;13.10;99.90
59311;DHT22;45078;51.654;21.250;2024-02-26T14:46:51;13.10;99.90
59311;DHT22;45078;51.654;21.250;2024-02-26T14:49:17;13.10;99.90
59311;DHT22;45078;51.654;21.250;2024-02-26T14:51:43;13.10;99.90
59311;DHT22;45078;51.654;21.250;2024-02-26T14:54:11;13.10;99.90
59311;DHT22;45078;51.654;21.250;2024-02-26T14:56:37;13.00;99.90
59311;DHT22;45078;51.654;21.250;2024-02-26T14:59:03;13.10;99.90
59311;DHT22;45078;51.654;21.250;2024-02-26T15:01:28;13.00;99.90
59311;DHT22;45078;51.654;21.250;2024-02-26T15:03:54;12.90;99.90
59311;DHT22;45078;51.654;21.250;2024-02-26T15:06:20;12.90;99.90
59311;DHT22;45078;51.654;21.250;2024-02-26T15:08:46;12.90;99.90
59311;DHT22;45078;51.654;21.250;2024-02-26T15:11:12;12.90;99.90
59311;DHT22;45078;51.654;21.250;2024-02-26T15:13:38;12.80;99.90
59311;DHT22;45078;51.654;21.250;2024-02-26T15:16:04;12.80;99.90
59311;DHT22;45078;51.654;21.250;2024-02-26T15:18:29;12.80;99.90
59311;DHT22;45078;51.654;21.250;2024-02-26T15:20:55;12.80;99.90
59311;DHT22;45078;51.654;21.250;2024-02-26T15:23:21;12.80;99.90
59311;DHT22;45078;51.654;21.250;2024-02-26T15:25:46;12.80;99.90
59311;DHT22;45078;51.654;21.250;2024-02-26T15:28:12;12.70;99.90